Time;durP1;ratioP1;P1;durP2;ratioP2;P2;SDS_P1;SDS_P2;PMS_P1;PMS_P2;Temp;Humidity;BMP_temperature;BMP_pressure;BME280_temperature;BME280_humidity;BME280_pressure;Samples;Min_cycle;Max_cycle;Signal;HPM_P1;HPM_P2
2023/12/16 00:01:42;;;;;;;44.03;19.23;;;8.20;99.90;;;;;;5053570;28;20475;-72
2023/12/16 00:04:09;;;;;;;44.40;20.83;;;8.20;99.90;;;;;;5054092;28;20967;-72
2023/12/16 00:06:36;;;;;;;51.73;21.37;;;8.10;99.90;;;;;;5036632;28;20985;-71
2023/12/16 00:09:04;;;;;;;62.77;26.17;;;7.90;99.90;;;;;;5057770;28;20482;-71
2023/12/16 00:11:31;;;;;;;58.63;21.33;;;7.90;99.90;;;;;;5054544;28;20784;-71
2023/12/16 00:13:58;;;;;;;53.27;23.77;;;7.90;99.90;;;;;;5053557;28;20570;-72
2023/12/16 00:16:26;;;;;;;74.67;28.10;;;7.80;99.90;;;;;;5055165;28;20692;-72
2023/12/16 00:18:53;;;;;;;73.63;27.43;;;7.80;99.90;;;;;;5045171;28;20903;-72
2023/12/16 00:21:20;;;;;;;56.50;24.53;;;7.70;99.90;;;;;;5067504;28;20554;-72
2023/12/16 00:23:47;;;;;;;63.87;23.43;;;7.70;99.90;;;;;;5054057;28;20977;-72
2023/12/16 00:26:15;;;;;;;51.73;23.60;;;7.60;99.90;;;;;;5054425;28;21068;-72
2023/12/16 00:28:41;;;;;;;49.83;22.67;;;7.70;99.90;;;;;;5054608;28;20556;-72
2023/12/16 00:31:08;;;;;;;53.40;23.60;;;7.90;99.90;;;;;;5052049;28;20985;-72
2023/12/16 00:33:35;;;;;;;41.37;21.93;;;8.10;99.90;;;;;;5053369;28;20463;-72
2023/12/16 00:36:03;;;;;;;46.07;21.20;;;8.20;99.90;;;;;;5053089;28;20878;-72
2023/12/16 00:38:31;;;;;;;48.47;22.83;;;8.30;99.90;;;;;;5053314;28;20549;-70
2023/12/16 00:40:57;;;;;;;46.77;22.30;;;8.20;99.90;;;;;;5059048;28;21023;-72
2023/12/16 00:43:26;;;;;;;49.63;22.73;;;8.20;99.90;;;;;;5054886;28;20469;-73
2023/12/16 00:45:52;;;;;;;62.73;22.40;;;8.10;99.90;;;;;;5053974;28;20485;-73
2023/12/16 00:48:19;;;;;;;61.30;26.13;;;;;;;;;;5051579;28;20493;-73
2023/12/16 00:50:46;;;;;;;71.93;25.00;;;7.80;99.90;;;;;;5053859;28;20493;-72
2023/12/16 00:53:14;;;;;;;54.77;25.03;;;7.70;99.90;;;;;;5053691;28;20930;-72
2023/12/16 00:55:41;;;;;;;49.37;25.27;;;7.70;99.90;;;;;;5054896;28;20544;-73
2023/12/16 00:58:08;;;;;;;54.57;22.03;;;7.90;99.90;;;;;;5049930;28;20486;-73
2023/12/16 01:00:36;;;;;;;37.80;19.50;;;8.00;99.90;;;;;;5053685;28;20479;-73
2023/12/16 01:03:03;;;;;;;49.13;22.90;;;8.00;99.90;;;;;;5052933;28;21001;-73
2023/12/16 01:05:30;;;;;;;42.10;22.93;;;8.20;99.90;;;;;;5055168;28;20486;-73
2023/12/16 01:07:56;;;;;;;43.03;21.47;;;8.30;99.90;;;;;;5054381;28;20496;-74
2023/12/16 01:10:23;;;;;;;47.20;20.97;;;8.40;99.90;;;;;;5063459;28;20674;-73
2023/12/16 01:12:50;;;;;;;48.73;23.20;;;8.50;99.90;;;;;;5057034;28;21054;-73
2023/12/16 01:15:17;;;;;;;44.87;22.77;;;8.50;99.90;;;;;;5058634;28;20477;-73
2023/12/16 01:17:45;;;;;;;40.53;20.00;;;8.50;99.90;;;;;;5057733;28;20475;-73
2023/12/16 01:20:12;;;;;;;63.80;21.20;;;8.50;99.90;;;;;;5057160;28;20485;-73
2023/12/16 01:22:38;;;;;;;55.33;22.13;;;8.50;99.90;;;;;;5056816;28;20494;-77
2023/12/16 01:25:06;;;;;;;67.50;21.57;;;8.60;99.90;;;;;;5057595;28;20500;-77
2023/12/16 01:27:33;;;;;;;43.73;20.37;;;8.50;99.90;;;;;;5052407;28;20496;-77
2023/12/16 01:30:00;;;;;;;44.53;21.20;;;8.40;99.90;;;;;;5063212;28;20471;-77
2023/12/16 01:32:26;;;;;;;43.77;21.27;;;8.30;99.90;;;;;;5054562;28;20477;-75
2023/12/16 01:34:54;;;;;;;45.77;21.90;;;8.30;99.90;;;;;;5055772;28;20471;-77
2023/12/16 01:37:21;;;;;;;54.13;23.30;;;8.00;99.90;;;;;;5057233;28;20871;-78
2023/12/16 01:39:48;;;;;;;49.70;22.70;;;8.00;99.90;;;;;;5061609;28;20851;-77
2023/12/16 01:42:15;;;;;;;45.73;21.83;;;7.90;99.90;;;;;;5058020;28;20493;-76
2023/12/16 01:44:42;;;;;;;55.77;24.10;;;7.80;99.90;;;;;;5056494;28;20485;-77
2023/12/16 01:47:08;;;;;;;60.83;23.47;;;7.70;99.90;;;;;;5057093;28;20895;-76
2023/12/16 01:49:37;;;;;;;47.27;23.10;;;7.60;99.90;;;;;;5057108;28;20569;-75
2023/12/16 01:52:07;;;;;;;45.50;19.70;;;7.50;99.90;;;;;;5062776;28;21072;-77
2023/12/16 01:54:35;;;;;;;52.73;20.00;;;7.70;99.90;;;;;;5054810;28;20486;-78
2023/12/16 01:57:03;;;;;;;45.33;21.60;;;7.70;99.90;;;;;;5054829;28;20892;-77
2023/12/16 01:59:30;;;;;;;90.43;22.70;;;7.70;99.90;;;;;;5057515;28;20471;-77
2023/12/16 02:01:57;;;;;;;43.40;20.00;;;7.70;99.90;;;;;;5053421;28;20849;-75
2023/12/16 02:04:24;;;;;;;52.03;22.40;;;7.60;99.90;;;;;;5056122;28;20481;-76
2023/12/16 02:06:51;;;;;;;84.97;24.80;;;7.50;99.90;;;;;;5056383;28;20475;-76
2023/12/16 02:09:19;;;;;;;37.60;18.40;;;7.50;99.90;;;;;;5046938;28;20566;-76
2023/12/16 02:11:46;;;;;;;46.13;19.80;;;7.60;99.90;;;;;;5054874;28;20994;-77
2023/12/16 02:14:12;;;;;;;49.87;20.30;;;7.70;99.90;;;;;;5038366;28;20577;-77
2023/12/16 02:16:39;;;;;;;34.30;18.30;;;7.80;99.90;;;;;;5040307;28;20459;-77
2023/12/16 02:19:11;;;;;;;43.90;20.40;;;7.90;99.90;;;;;;5034530;28;20795;-77
2023/12/16 02:21:37;;;;;;;46.57;20.83;;;8.10;99.90;;;;;;5035369;28;20887;-76
2023/12/16 02:24:06;;;;;;;38.60;19.23;;;8.20;99.90;;;;;;5035380;28;20964;-76
2023/12/16 02:26:33;;;;;;;38.27;19.57;;;8.20;99.90;;;;;;5036635;28;20484;-77
2023/12/16 02:28:59;;;;;;;42.67;18.00;;;8.30;99.90;;;;;;5035154;28;20483;-76
2023/12/16 02:31:26;;;;;;;41.57;18.37;;;8.30;99.90;;;;;;5034995;28;20490;-76
2023/12/16 02:33:53;;;;;;;61.23;20.47;;;8.30;99.90;;;;;;5035365;28;20550;-75
2023/12/16 02:36:20;;;;;;;33.10;18.37;;;8.30;99.90;;;;;;5036364;28;21073;-77
2023/12/16 02:38:46;;;;;;;43.50;18.83;;;8.40;99.90;;;;;;5034563;28;20486;-77
2023/12/16 02:41:15;;;;;;;39.03;18.07;;;8.40;99.90;;;;;;5034075;28;20850;-79
2023/12/16 02:43:42;;;;;;;43.17;18.73;;;8.50;99.90;;;;;;5035212;28;20675;-78
2023/12/16 02:46:10;;;;;;;31.40;17.70;;;8.40;99.90;;;;;;5037087;28;20464;-78
2023/12/16 02:48:38;;;;;;;54.37;19.50;;;8.50;99.90;;;;;;5035786;28;20488;-78
2023/12/16 02:51:05;;;;;;;32.77;17.50;;;8.50;99.90;;;;;;5038186;28;20519;-77
2023/12/16 02:53:31;;;;;;;29.13;16.53;;;8.50;99.90;;;;;;5038368;28;20475;-77
2023/12/16 02:55:58;;;;;;;37.70;18.50;;;8.40;99.90;;;;;;5037238;28;20472;-78
2023/12/16 02:58:26;;;;;;;33.07;16.63;;;8.50;99.90;;;;;;5035078;28;20563;-79
2023/12/16 03:00:53;;;;;;;35.40;19.77;;;8.50;99.90;;;;;;5036228;28;20484;-77
2023/12/16 03:03:20;;;;;;;37.47;18.30;;;8.50;99.90;;;;;;5033380;28;20480;-77
2023/12/16 03:05:46;;;;;;;35.57;16.33;;;8.50;99.90;;;;;;5052550;28;20593;-77
2023/12/16 03:08:13;;;;;;;48.93;17.83;;;8.50;99.90;;;;;;5058371;28;20694;-77
2023/12/16 03:10:40;;;;;;;39.77;17.57;;;8.40;99.90;;;;;;5034529;28;20861;-79
2023/12/16 03:13:06;;;;;;;45.07;18.90;;;8.40;99.90;;;;;;5037059;28;20790;-78
2023/12/16 03:15:34;;;;;;;44.40;18.70;;;8.30;99.90;;;;;;5041347;28;20927;-78
2023/12/16 03:18:01;;;;;;;37.70;18.10;;;8.30;99.90;;;;;;5040249;28;20486;-78
2023/12/16 03:20:28;;;;;;;43.10;21.40;;;8.20;99.90;;;;;;5037090;28;20483;-78
2023/12/16 03:22:55;;;;;;;34.33;16.17;;;8.20;99.90;;;;;;5047313;28;20483;-76
2023/12/16 03:25:22;;;;;;;38.27;16.73;;;8.20;99.90;;;;;;5046471;28;20479;-77
2023/12/16 03:27:49;;;;;;;29.50;16.00;;;8.30;99.90;;;;;;5040581;28;20484;-78
2023/12/16 03:30:16;;;;;;;45.83;17.20;;;8.30;99.90;;;;;;5039752;28;21081;-79
2023/12/16 03:32:44;;;;;;;35.80;17.77;;;8.40;99.90;;;;;;5031757;28;21297;-78
2023/12/16 03:35:11;;;;;;;32.97;16.40;;;8.40;99.90;;;;;;5049219;28;20880;-78
2023/12/16 03:37:38;;;;;;;38.00;17.10;;;8.40;99.90;;;;;;5038828;28;20480;-79
2023/12/16 03:40:06;;;;;;;44.77;17.60;;;8.20;99.90;;;;;;5039773;28;20548;-78
2023/12/16 03:42:33;;;;;;;68.20;18.50;;;8.00;99.90;;;;;;5060104;28;20481;-76
2023/12/16 03:45:00;;;;;;;45.23;17.63;;;8.10;99.90;;;;;;5059235;28;20474;-79
2023/12/16 03:47:27;;;;;;;70.90;20.03;;;8.00;99.90;;;;;;5059479;28;20560;-79
2023/12/16 03:49:56;;;;;;;49.57;17.80;;;8.00;99.90;;;;;;5059279;28;20479;-76
2023/12/16 03:52:22;;;;;;;36.63;18.60;;;8.10;99.90;;;;;;5059660;28;20479;-77
2023/12/16 03:54:49;;;;;;;39.67;19.60;;;8.10;99.90;;;;;;5059824;28;20479;-77
2023/12/16 03:57:16;;;;;;;49.00;21.13;;;8.00;99.90;;;;;;5056210;28;20477;-78
2023/12/16 03:59:43;;;;;;;54.93;18.47;;;7.80;99.90;;;;;;5058944;28;20586;-78
2023/12/16 04:02:10;;;;;;;44.53;19.20;;;7.80;99.90;;;;;;5044667;28;21072;-78
2023/12/16 04:04:36;;;;;;;41.50;16.03;;;7.80;99.90;;;;;;5074733;28;20475;-75
2023/12/16 04:07:05;;;;;;;35.60;16.77;;;7.90;99.90;;;;;;5048914;28;20676;-78
2023/12/16 04:09:31;;;;;;;33.63;16.87;;;7.70;99.90;;;;;;5050705;28;20471;-77
2023/12/16 04:11:58;;;;;;;40.33;15.70;;;7.80;99.90;;;;;;5044369;28;20855;-77
2023/12/16 04:14:26;;;;;;;33.00;15.37;;;7.80;99.90;;;;;;5039360;28;20565;-78
2023/12/16 04:16:52;;;;;;;40.17;17.80;;;7.90;99.90;;;;;;5040092;28;20515;-80
2023/12/16 04:19:19;;;;;;;52.90;18.80;;;7.90;99.90;;;;;;5038326;28;20484;-79
2023/12/16 04:21:46;;;;;;;42.40;18.10;;;7.80;99.90;;;;;;5039176;28;20492;-79
2023/12/16 04:24:14;;;;;;;41.63;16.10;;;7.90;99.90;;;;;;5036064;28;20472;-79
2023/12/16 04:26:41;;;;;;;32.73;15.90;;;7.90;99.90;;;;;;5038201;28;20472;-77
2023/12/16 04:29:08;;;;;;;32.50;17.03;;;8.00;99.90;;;;;;5036274;28;20928;-79
2023/12/16 04:31:35;;;;;;;46.87;18.50;;;8.10;99.90;;;;;;5047423;28;20487;-78
2023/12/16 04:34:01;;;;;;;36.83;17.10;;;8.10;99.90;;;;;;5044334;28;20555;-78
2023/12/16 04:36:29;;;;;;;32.97;18.67;;;8.00;99.90;;;;;;5050989;28;20464;-77
2023/12/16 04:38:57;;;;;;;43.80;20.03;;;7.90;99.90;;;;;;5049525;28;20517;-78
2023/12/16 04:41:25;;;;;;;40.27;17.87;;;7.80;99.90;;;;;;5044569;28;20566;-77
2023/12/16 04:43:53;;;;;;;33.23;17.40;;;7.70;99.90;;;;;;5050769;28;20475;-77
2023/12/16 04:46:20;;;;;;;45.63;21.50;;;7.50;99.90;;;;;;5046057;28;20578;-76
2023/12/16 04:48:47;;;;;;;42.60;18.50;;;7.40;99.90;;;;;;5042292;28;20561;-77
2023/12/16 04:51:14;;;;;;;41.57;18.30;;;7.40;99.90;;;;;;5043849;28;20833;-76
2023/12/16 04:53:41;;;;;;;46.70;18.70;;;7.40;99.90;;;;;;5044245;28;20675;-77
2023/12/16 04:56:08;;;;;;;234.37;31.80;;;7.40;99.90;;;;;;5043273;28;21985;-76
2023/12/16 04:58:36;;;;;;;151.40;22.97;;;7.40;99.90;;;;;;5025549;28;20895;-77
2023/12/16 05:01:03;;;;;;;115.90;22.47;;;7.40;99.90;;;;;;5047397;28;20592;-76
2023/12/16 05:03:31;;;;;;;50.00;18.60;;;7.30;99.90;;;;;;5039159;28;20567;-77
2023/12/16 05:05:58;;;;;;;44.30;20.30;;;7.20;99.90;;;;;;5038547;28;20561;-77
2023/12/16 05:08:25;;;;;;;56.40;19.00;;;7.20;99.90;;;;;;5042274;28;20555;-77
2023/12/16 05:10:51;;;;;;;34.90;16.40;;;7.20;99.90;;;;;;5041171;28;20908;-75
2023/12/16 05:13:18;;;;;;;38.43;18.23;;;7.30;99.90;;;;;;5041409;28;20489;-76
2023/12/16 05:15:46;;;;;;;32.30;16.00;;;7.20;99.90;;;;;;5043689;28;21159;-78
2023/12/16 05:18:13;;;;;;;61.07;16.87;;;7.20;99.90;;;;;;5056262;28;20577;-78
2023/12/16 05:20:40;;;;;;;27.97;15.00;;;7.30;99.90;;;;;;5047055;28;21117;-79
2023/12/16 05:23:07;;;;;;;39.60;16.80;;;7.40;99.90;;;;;;5050703;28;20506;-79
2023/12/16 05:25:35;;;;;;;41.67;17.30;;;7.40;99.90;;;;;;5046673;28;20890;-79
2023/12/16 05:28:02;;;;;;;37.50;17.27;;;7.40;99.90;;;;;;5046333;28;20633;-78
2023/12/16 05:30:29;;;;;;;40.40;17.77;;;7.40;99.90;;;;;;5040330;28;20738;-78
2023/12/16 05:32:57;;;;;;;54.30;19.40;;;7.30;99.90;;;;;;5051331;28;20883;-78
2023/12/16 05:35:24;;;;;;;52.30;20.60;;;7.20;99.90;;;;;;5037228;28;20598;-78
2023/12/16 05:37:51;;;;;;;44.17;17.77;;;7.20;99.90;;;;;;5069120;28;20730;-78
2023/12/16 05:40:18;;;;;;;53.63;19.20;;;7.10;99.90;;;;;;5061522;28;20470;-78
2023/12/16 05:42:44;;;;;;;38.53;18.90;;;7.10;99.90;;;;;;5060743;28;20485;-78
2023/12/16 05:45:13;;;;;;;41.20;19.23;;;7.10;99.90;;;;;;5060228;28;20977;-78
2023/12/16 05:47:40;;;;;;;36.73;17.83;;;7.00;99.90;;;;;;5060792;28;20482;-76
2023/12/16 05:50:09;;;;;;;51.50;22.00;;;7.00;99.90;;;;;;5055248;28;20581;-77
2023/12/16 05:52:36;;;;;;;59.00;19.27;;;6.90;99.90;;;;;;5049873;28;20800;-77
2023/12/16 05:55:04;;;;;;;113.20;21.80;;;6.80;99.90;;;;;;5061207;28;20483;-77
2023/12/16 05:57:31;;;;;;;30.13;15.73;;;6.90;99.90;;;;;;5061655;28;20989;-78
2023/12/16 05:59:57;;;;;;;28.13;14.30;;;7.00;99.90;;;;;;5062240;28;20474;-77
2023/12/16 06:02:25;;;;;;;362.90;38.63;;;7.10;99.90;;;;;;5056551;28;20490;-77
2023/12/16 06:04:52;;;;;;;483.17;51.87;;;7.10;99.90;;;;;;5070252;28;20467;-77
2023/12/16 06:07:20;;;;;;;250.40;28.30;;;6.90;99.90;;;;;;5059711;28;20510;-76
2023/12/16 06:09:47;;;;;;;72.67;19.50;;;6.80;99.90;;;;;;5061204;28;20653;-78
2023/12/16 06:12:14;;;;;;;31.03;17.23;;;6.70;99.90;;;;;;5060690;28;20486;-77
2023/12/16 06:14:40;;;;;;;37.60;17.73;;;6.60;99.90;;;;;;5056688;28;20481;-78
2023/12/16 06:17:07;;;;;;;27.50;14.43;;;6.60;99.90;;;;;;5048772;28;20727;-77
2023/12/16 06:19:34;;;;;;;28.40;16.60;;;6.60;99.90;;;;;;5068538;28;20475;-76
2023/12/16 06:22:01;;;;;;;37.83;16.43;;;6.80;99.90;;;;;;5060750;28;20479;-79
2023/12/16 06:24:29;;;;;;;30.30;16.20;;;6.80;99.90;;;;;;5060202;28;20582;-79
2023/12/16 06:26:55;;;;;;;45.93;16.50;;;6.90;99.90;;;;;;5058565;28;20472;-79
2023/12/16 06:29:23;;;;;;;416.40;40.13;;;6.90;99.90;;;;;;5060131;28;20567;-79
2023/12/16 06:31:49;;;;;;;302.80;34.03;;;6.70;99.90;;;;;;5059288;28;20562;-80
2023/12/16 06:34:18;;;;;;;219.93;27.50;;;6.70;99.90;;;;;;5060704;28;20497;-77
2023/12/16 06:36:45;;;;;;;43.33;15.80;;;6.60;99.90;;;;;;5061075;28;20558;-79
2023/12/16 06:39:12;;;;;;;29.97;14.80;;;6.60;99.90;;;;;;5061011;28;20554;-79
2023/12/16 06:41:40;;;;;;;73.93;17.87;;;;;;;;;;5060708;28;20488;-78
2023/12/16 06:44:07;;;;;;;45.57;17.03;;;6.90;99.90;;;;;;5061086;28;20991;-78
2023/12/16 06:46:34;;;;;;;203.47;26.03;;;6.80;99.90;;;;;;5061043;28;20882;-78
2023/12/16 06:49:01;;;;;;;96.70;18.47;;;6.90;99.90;;;;;;5060187;28;20566;-78
2023/12/16 06:51:28;;;;;;;63.23;17.13;;;6.90;99.90;;;;;;5060899;28;20479;-79
2023/12/16 06:53:54;;;;;;;59.20;17.67;;;7.00;99.90;;;;;;5059775;28;20566;-78
2023/12/16 06:56:21;;;;;;;85.60;17.13;;;7.00;99.90;;;;;;5060364;28;21137;-78
2023/12/16 06:58:49;;;;;;;149.83;22.17;;;7.00;99.90;;;;;;5059422;28;20490;-77
2023/12/16 07:01:16;;;;;;;152.17;22.80;;;7.00;99.90;;;;;;5063356;28;20501;-79
2023/12/16 07:03:43;;;;;;;36.07;14.13;;;7.00;99.90;;;;;;5059077;28;20932;-78
2023/12/16 07:06:10;;;;;;;25.20;12.93;;;7.00;99.90;;;;;;5053983;28;20477;-80
2023/12/16 07:08:37;;;;;;;49.33;14.93;;;7.00;99.90;;;;;;5051969;28;21067;-77
2023/12/16 07:11:04;;;;;;;163.73;22.23;;;7.00;99.90;;;;;;5046253;28;20467;-79
2023/12/16 07:13:31;;;;;;;114.67;21.07;;;7.00;99.90;;;;;;5060112;28;20580;-78
2023/12/16 07:16:03;;;;;;;60.50;14.10;;;6.90;99.90;;;;;;5060229;28;20475;-79
2023/12/16 07:18:30;;;;;;;172.90;23.97;;;6.90;99.90;;;;;;5057808;28;20479;-79
2023/12/16 07:20:57;;;;;;;63.03;14.40;;;6.70;99.90;;;;;;5060016;28;21066;-78
2023/12/16 07:23:24;;;;;;;36.27;13.43;;;6.60;99.90;;;;;;5060097;28;21087;-78
2023/12/16 07:25:51;;;;;;;36.90;14.37;;;6.60;99.90;;;;;;5060109;28;20905;-79
2023/12/16 07:28:18;;;;;;;16.73;11.90;;;6.50;99.90;;;;;;5060084;28;21021;-79
2023/12/16 07:30:45;;;;;;;46.13;12.97;;;6.30;99.90;;;;;;5059731;28;20529;-78
2023/12/16 07:33:13;;;;;;;21.67;11.80;;;6.20;99.90;;;;;;5059825;28;20475;-77
2023/12/16 07:35:40;;;;;;;20.43;11.57;;;6.20;99.90;;;;;;5059426;28;20486;-79
2023/12/16 07:38:08;;;;;;;20.90;11.70;;;6.20;99.90;;;;;;5059727;28;20477;-78
2023/12/16 07:40:35;;;;;;;21.40;11.80;;;6.40;99.90;;;;;;5060072;28;20471;-76
2023/12/16 07:43:02;;;;;;;25.50;13.10;;;6.40;99.90;;;;;;5059356;28;20490;-79
2023/12/16 07:45:29;;;;;;;19.53;12.90;;;6.40;99.90;;;;;;5059188;28;21032;-76
2023/12/16 07:47:56;;;;;;;25.20;13.37;;;6.50;99.90;;;;;;5059716;28;20670;-77
2023/12/16 07:50:24;;;;;;;21.10;11.83;;;6.60;99.90;;;;;;5060032;28;20941;-76
2023/12/16 07:52:51;;;;;;;70.90;28.60;;;6.60;99.90;;;;;;5042032;28;20768;-76
2023/12/16 07:55:17;;;;;;;38.57;16.63;;;6.60;99.90;;;;;;5060023;28;21231;-78
2023/12/16 07:57:44;;;;;;;43.00;18.87;;;6.40;99.90;;;;;;5059002;28;20489;-76
2023/12/16 08:00:11;;;;;;;27.73;14.13;;;6.40;99.90;;;;;;5059316;28;20475;-78
2023/12/16 08:02:38;;;;;;;22.90;15.30;;;6.40;99.90;;;;;;5060543;28;20951;-77
2023/12/16 08:05:06;;;;;;;35.30;15.67;;;6.60;99.90;;;;;;5059424;28;20920;-78
2023/12/16 08:07:34;;;;;;;42.93;15.17;;;6.60;99.90;;;;;;5058826;28;20478;-77
2023/12/16 08:10:01;;;;;;;21.60;13.23;;;6.60;99.90;;;;;;5055529;28;20517;-78
2023/12/16 08:12:27;;;;;;;19.53;11.27;;;6.60;99.90;;;;;;5059068;28;20479;-78
2023/12/16 08:14:55;;;;;;;23.50;12.23;;;6.50;99.90;;;;;;5058320;28;20482;-77
2023/12/16 08:17:22;;;;;;;27.60;11.87;;;6.50;99.90;;;;;;5056589;28;20489;-78
2023/12/16 08:19:49;;;;;;;31.97;13.43;;;6.60;99.90;;;;;;5054884;28;20485;-77
2023/12/16 08:22:16;;;;;;;22.47;13.50;;;;;;;;;;5058288;28;20478;-77
2023/12/16 08:24:44;;;;;;;35.77;13.00;;;6.70;99.90;;;;;;5055218;28;20565;-78
2023/12/16 08:27:11;;;;;;;21.93;13.10;;;6.80;99.90;;;;;;5065657;28;20949;-78
2023/12/16 08:29:38;;;;;;;28.93;13.90;;;6.80;99.90;;;;;;5059023;28;20475;-79
2023/12/16 08:32:05;;;;;;;42.60;14.00;;;6.80;99.90;;;;;;5056047;28;20479;-76
2023/12/16 08:34:33;;;;;;;27.63;18.07;;;6.80;99.90;;;;;;5057880;28;20509;-78
2023/12/16 08:37:00;;;;;;;30.27;17.07;;;6.90;99.90;;;;;;5058162;28;20515;-78
2023/12/16 08:39:27;;;;;;;29.93;18.90;;;7.10;99.90;;;;;;5054127;28;20977;-78
2023/12/16 08:41:56;;;;;;;39.27;19.53;;;7.20;99.90;;;;;;5068570;28;20489;-78
2023/12/16 08:44:22;;;;;;;35.37;20.43;;;7.20;99.90;;;;;;5059399;28;20467;-79
2023/12/16 08:46:49;;;;;;;40.33;18.20;;;7.30;99.90;;;;;;5059054;28;20482;-79
2023/12/16 08:49:16;;;;;;;35.00;19.87;;;7.20;99.90;;;;;;5047029;28;20919;-78
2023/12/16 08:51:43;;;;;;;32.20;17.57;;;7.10;99.90;;;;;;5059228;28;20483;-78
2023/12/16 08:54:10;;;;;;;37.23;17.50;;;7.10;99.90;;;;;;5057630;28;20515;-76
2023/12/16 08:56:37;;;;;;;38.20;16.17;;;7.10;99.90;;;;;;5058507;28;20566;-78
2023/12/16 08:59:05;;;;;;;31.13;17.30;;;;;;;;;;5058693;28;21101;-78
2023/12/16 09:01:33;;;;;;;37.27;17.60;;;7.20;99.90;;;;;;5058027;28;20528;-78
2023/12/16 09:04:00;;;;;;;27.83;15.50;;;7.20;99.90;;;;;;5058161;28;20573;-77
2023/12/16 09:06:27;;;;;;;27.97;13.93;;;7.30;99.90;;;;;;5059094;28;21013;-77
2023/12/16 09:08:54;;;;;;;29.37;15.50;;;7.30;99.90;;;;;;5058775;28;20518;-77
2023/12/16 09:11:21;;;;;;;25.47;14.90;;;7.40;99.90;;;;;;5058361;28;20832;-77
2023/12/16 09:13:47;;;;;;;38.37;15.33;;;7.40;99.90;;;;;;5058141;28;21141;-76
2023/12/16 09:16:15;;;;;;;24.10;14.23;;;7.50;99.90;;;;;;5059223;28;20486;-78
2023/12/16 09:18:42;;;;;;;23.33;14.17;;;7.60;99.90;;;;;;5057800;28;20527;-77
2023/12/16 09:21:09;;;;;;;26.40;14.77;;;7.60;99.90;;;;;;5056588;28;20477;-78
2023/12/16 09:23:36;;;;;;;25.00;13.53;;;7.80;99.90;;;;;;5057939;28;20499;-78
2023/12/16 09:26:03;;;;;;;23.57;15.07;;;7.80;99.90;;;;;;5059383;28;20502;-78
2023/12/16 09:28:30;;;;;;;31.00;16.37;;;8.00;99.90;;;;;;5054550;28;20904;-77
2023/12/16 09:30:57;;;;;;;30.43;14.60;;;7.90;99.90;;;;;;5066598;28;20478;-78
2023/12/16 09:33:25;;;;;;;32.27;15.30;;;8.00;99.90;;;;;;5062826;28;20574;-78
2023/12/16 09:35:52;;;;;;;25.20;16.03;;;8.10;99.90;;;;;;5060620;28;20488;-77
2023/12/16 09:38:19;;;;;;;27.77;17.10;;;8.20;99.90;;;;;;5061759;28;20597;-77
2023/12/16 09:40:46;;;;;;;27.10;16.33;;;8.20;99.90;;;;;;5062030;28;20510;-77
2023/12/16 09:43:16;;;;;;;29.30;15.57;;;8.20;99.90;;;;;;5061595;28;21314;-77
2023/12/16 09:45:46;;;;;;;24.27;14.23;;;8.20;99.90;;;;;;5062134;28;21097;-77
2023/12/16 09:48:15;;;;;;;29.83;14.87;;;8.20;99.90;;;;;;5060012;28;20506;-77
2023/12/16 09:50:44;;;;;;;34.67;19.30;;;8.30;99.90;;;;;;5061866;28;20507;-77
2023/12/16 09:53:12;;;;;;;39.20;21.60;;;8.40;99.90;;;;;;5062088;28;20710;-76
2023/12/16 09:55:39;;;;;;;26.00;14.03;;;8.40;99.90;;;;;;5061419;28;20794;-77
2023/12/16 09:58:07;;;;;;;29.13;15.67;;;8.40;99.90;;;;;;5060396;28;20517;-76
2023/12/16 10:00:37;;;;;;;24.83;14.37;;;8.40;99.90;;;;;;5061079;28;20961;-76
2023/12/16 10:03:04;;;;;;;30.53;15.00;;;8.30;99.90;;;;;;5061748;28;20550;-76
2023/12/16 10:05:33;;;;;;;24.53;14.87;;;8.20;99.90;;;;;;5056405;28;20489;-75
2023/12/16 10:08:04;;;;;;;49.03;14.73;;;8.20;99.90;;;;;;5059262;28;20905;-76
2023/12/16 10:10:31;;;;;;;23.03;13.60;;;8.20;99.90;;;;;;5044244;28;21345;-75
2023/12/16 10:13:01;;;;;;;30.97;13.00;;;8.30;99.90;;;;;;5041642;28;20483;-75
2023/12/16 10:15:32;;;;;;;34.23;14.83;;;8.50;99.90;;;;;;5036888;28;20503;-76
2023/12/16 10:18:01;;;;;;;22.27;13.67;;;8.60;99.90;;;;;;5041484;28;21081;-75
2023/12/16 10:20:28;;;;;;;22.43;14.20;;;8.70;99.90;;;;;;5040672;28;20565;-76
2023/12/16 10:22:56;;;;;;;43.90;14.90;;;8.90;99.90;;;;;;5041216;28;20463;-76
2023/12/16 10:25:24;;;;;;;22.17;13.97;;;8.80;99.90;;;;;;5052665;28;20474;-76
2023/12/16 10:27:51;;;;;;;28.13;14.23;;;8.80;99.90;;;;;;5058442;28;20490;-75
2023/12/16 10:30:18;;;;;;;25.17;13.37;;;8.60;99.90;;;;;;5047512;28;20562;-75
2023/12/16 10:32:45;;;;;;;21.27;12.93;;;8.60;99.90;;;;;;5045205;28;20488;-75
2023/12/16 10:35:11;;;;;;;25.73;12.63;;;8.80;99.90;;;;;;5044772;28;20551;-75
2023/12/16 10:37:49;;;;;;;19.90;13.47;;;8.90;99.90;;;;;;5049064;28;20487;-76
2023/12/16 10:40:16;;;;;;;24.83;13.60;;;8.90;99.90;;;;;;5048296;28;20483;-75
2023/12/16 10:42:45;;;;;;;32.00;14.10;;;;;;;;;;5042827;28;20553;-75
2023/12/16 10:45:13;;;;;;;29.03;13.73;;;9.20;99.90;;;;;;5039564;28;20912;-75
2023/12/16 10:47:41;;;;;;;20.93;14.00;;;9.30;99.90;;;;;;5029934;28;20493;-75
2023/12/16 10:50:09;;;;;;;26.30;12.90;;;9.40;99.90;;;;;;5054784;28;20970;-75
2023/12/16 10:52:40;;;;;;;26.43;13.53;;;9.40;99.90;;;;;;5039827;28;20487;-75
2023/12/16 10:55:13;;;;;;;23.70;13.57;;;9.50;99.90;;;;;;5044500;28;20510;-74
2023/12/16 10:57:48;;;;;;;23.57;13.70;;;9.60;99.90;;;;;;5038504;28;20998;-75
2023/12/16 11:00:21;;;;;;;23.53;13.53;;;9.60;99.90;;;;;;5051623;28;20569;-75
2023/12/16 11:02:55;;;;;;;22.47;14.17;;;9.70;99.90;;;;;;5056790;28;20578;-75
2023/12/16 11:05:27;;;;;;;21.03;11.73;;;9.70;99.90;;;;;;5060819;28;20972;-75
2023/12/16 11:07:55;;;;;;;23.60;13.53;;;9.80;99.90;;;;;;5055879;28;21003;-75
2023/12/16 11:10:23;;;;;;;26.63;13.20;;;9.90;99.90;;;;;;5060002;28;20486;-75
2023/12/16 11:12:52;;;;;;;32.27;13.30;;;9.90;99.90;;;;;;5059794;28;20485;-75
2023/12/16 11:15:20;;;;;;;23.17;13.83;;;9.90;99.90;;;;;;5060834;28;20467;-75
2023/12/16 11:17:57;;;;;;;20.93;13.23;;;9.70;99.90;;;;;;5060210;28;20770;-75
2023/12/16 11:20:33;;;;;;;22.07;13.20;;;9.60;99.90;;;;;;5059632;28;20933;-74
2023/12/16 11:23:00;;;;;;;21.20;12.87;;;9.60;99.90;;;;;;5033101;28;21956;-75
2023/12/16 11:25:27;;;;;;;18.63;12.63;;;9.60;99.90;;;;;;5042527;28;20471;-76
2023/12/16 11:27:57;;;;;;;21.30;11.30;;;9.60;99.90;;;;;;5045565;28;20863;-75
2023/12/16 11:30:24;;;;;;;17.90;10.83;;;9.80;99.90;;;;;;5044507;28;20472;-76
2023/12/16 11:32:55;;;;;;;19.30;9.70;;;9.80;99.90;;;;;;5040394;28;20488;-76
2023/12/16 11:35:45;;;;;;;20.73;10.77;;;9.80;99.90;;;;;;5038225;28;20500;-75
2023/12/16 11:38:42;;;;;;;19.50;9.87;;;9.70;99.90;;;;;;5042458;28;20480;-76
2023/12/16 11:41:39;;;;;;;15.60;10.53;;;9.80;99.90;;;;;;5046827;28;20503;-75
2023/12/16 11:44:08;;;;;;;17.60;10.37;;;9.90;99.90;;;;;;5032858;28;20824;-76
2023/12/16 11:46:38;;;;;;;23.00;11.73;;;9.90;99.90;;;;;;5052461;28;20540;-75
2023/12/16 11:49:10;;;;;;;17.73;10.70;;;;;;;;;;5051195;28;20538;-77
2023/12/16 11:51:38;;;;;;;29.27;9.80;;;10.20;99.90;;;;;;5056333;28;20479;-75
2023/12/16 11:54:06;;;;;;;15.57;9.57;;;10.30;99.90;;;;;;5051597;28;21342;-77
2023/12/16 11:56:33;;;;;;;14.67;10.13;;;10.30;99.90;;;;;;5048710;28;20908;-77
2023/12/16 11:59:00;;;;;;;30.03;10.40;;;10.30;99.90;;;;;;5041960;28;20556;-76
2023/12/16 12:01:28;;;;;;;16.80;10.67;;;10.30;99.90;;;;;;5035716;28;20706;-76
2023/12/16 12:03:56;;;;;;;19.97;8.70;;;10.40;99.90;;;;;;5041897;28;20481;-77
2023/12/16 12:06:24;;;;;;;19.63;9.80;;;10.40;99.90;;;;;;5049252;28;20846;-77
2023/12/16 12:08:51;;;;;;;15.73;8.73;;;10.40;99.90;;;;;;5040648;28;20987;-78
2023/12/16 12:11:20;;;;;;;15.63;9.33;;;10.40;99.90;;;;;;5042370;28;20506;-77
2023/12/16 12:13:50;;;;;;;15.00;8.07;;;10.40;99.90;;;;;;5041703;28;20832;-75
2023/12/16 12:16:17;;;;;;;15.83;9.00;;;10.40;99.90;;;;;;5039016;28;20859;-77
2023/12/16 12:18:45;;;;;;;16.63;7.17;;;;;;;;;;5038894;28;20483;-76
2023/12/16 12:21:12;;;;;;;28.07;10.30;;;10.70;99.90;;;;;;5039567;28;20997;-77
2023/12/16 12:23:40;;;;;;;30.57;9.13;;;10.60;99.40;;;;;;5038132;28;20570;-78
2023/12/16 12:26:07;;;;;;;35.80;8.40;;;10.60;98.90;;;;;;5041883;28;21104;-77
2023/12/16 12:28:34;;;;;;;14.90;8.93;;;10.60;98.50;;;;;;5043201;28;21089;-78
2023/12/16 12:31:06;;;;;;;12.93;6.70;;;10.80;99.80;;;;;;5039406;28;20567;-77
2023/12/16 12:33:33;;;;;;;12.67;7.10;;;11.10;99.90;;;;;;5059456;28;20479;-77
2023/12/16 12:36:02;;;;;;;21.97;7.97;;;11.40;99.90;;;;;;5058465;28;20471;-78
2023/12/16 12:38:30;;;;;;;16.23;8.13;;;11.50;99.90;;;;;;5049973;28;20498;-76
2023/12/16 12:41:01;;;;;;;22.63;8.70;;;11.70;99.90;;;;;;5059350;28;20533;-77